Alfredo Vasconcelos, Brazil
Current Conditions -  °F | °C
As of 3:00 PM on Monday 24 Nov 2014 (Local Time) from SBBQ Reporting Station
Broken Clouds Broken Clouds  
Wind Chill: 77°   Ceiling: 2500
Heat Index: 79°   Visibility: 6mi
Dew Point: 64°   Wind: 6mph
Humidity: 65%   Direction: 70°ENE
Pressure: 30.12"   Gusts: NA
Location:  21.15°S, 43.78°W
Report Text: SBBQ 241700Z 07005KT 9999 BKN025 FEW030TCU BKN070 25/18 Q1020
Loading
Personal Weather Stations






























Interactive Weather Map New forecast layout! Learn more

10-Day Weather Forecast

Advertisements
Track Severe Weather on mobile